Time;durP1;ratioP1;P1;durP2;ratioP2;P2;SDS_P1;SDS_P2;PMS_P1;PMS_P2;Temp;Humidity;BMP_temperature;BMP_pressure;BME280_temperature;BME280_humidity;BME280_pressure;Samples;Min_cycle;Max_cycle;Signal;HPM_P1;HPM_P2
2022/10/20 00:00:59;;;;;;;10.25;3.08;;;11.90;94.70;;;;;;5053030;28;20025;-77
2022/10/20 00:03:26;;;;;;;5.05;2.75;;;12.00;94.40;;;;;;5056492;28;20032;-77
2022/10/20 00:05:52;;;;;;;8.60;3.05;;;12.00;94.60;;;;;;5056475;28;20028;-77
2022/10/20 00:08:18;;;;;;;5.72;2.97;;;12.00;94.50;;;;;;5056323;28;20033;-77
2022/10/20 00:10:55;;;;;;;5.13;2.80;;;11.90;94.50;;;;;;5056611;28;20031;-77
2022/10/20 00:13:22;;;;;;;5.43;3.00;;;11.90;94.60;;;;;;5056306;28;20484;-77
2022/10/20 00:15:49;;;;;;;6.82;3.38;;;11.90;94.60;;;;;;5056477;28;20037;-77
2022/10/20 00:18:14;;;;;;;5.93;2.50;;;11.80;94.60;;;;;;5056132;28;20021;-76
2022/10/20 00:20:40;;;;;;;4.80;3.10;;;11.70;94.90;;;;;;5056317;28;20032;-76
2022/10/20 00:23:05;;;;;;;5.95;3.08;;;11.60;95.00;;;;;;5056437;28;20059;-76
2022/10/20 00:25:31;;;;;;;6.47;2.88;;;11.70;95.10;;;;;;5056442;28;20532;-76
2022/10/20 00:27:57;;;;;;;7.05;2.90;;;11.80;95.10;;;;;;5056217;28;20060;-76
2022/10/20 00:30:22;;;;;;;4.22;3.05;;;11.90;94.90;;;;;;5056115;28;20021;-76
2022/10/20 00:32:48;;;;;;;8.07;3.25;;;11.90;94.90;;;;;;5055955;28;20049;-76
2022/10/20 00:35:13;;;;;;;6.50;3.15;;;11.90;94.80;;;;;;5056300;28;20104;-76
2022/10/20 00:37:39;;;;;;;5.10;3.00;;;12.00;94.60;;;;;;5056185;28;20032;-76
2022/10/20 00:40:05;;;;;;;7.80;2.88;;;12.00;94.90;;;;;;5054571;28;20025;-76
2022/10/20 00:42:31;;;;;;;5.00;2.88;;;12.00;94.70;;;;;;5055799;28;20048;-76
2022/10/20 00:44:58;;;;;;;5.28;3.25;;;12.00;94.60;;;;;;5056102;28;20091;-76
2022/10/20 00:47:52;;;;;;;5.50;3.10;;;12.00;94.50;;;;;;5055705;28;20037;-76
2022/10/20 00:50:20;;;;;;;5.57;3.40;;;12.00;94.40;;;;;;5055590;28;20025;-76
2022/10/20 00:52:47;;;;;;;8.90;4.15;;;12.00;94.50;;;;;;5057958;28;20025;-76
2022/10/20 00:55:18;;;;;;;5.70;3.00;;;12.00;94.50;;;;;;5058184;28;20457;-77
2022/10/20 00:57:46;;;;;;;8.70;3.65;;;12.00;94.50;;;;;;5056104;28;20025;-77
2022/10/20 01:00:12;;;;;;;6.82;3.05;;;12.00;94.40;;;;;;5055286;28;20079;-77
2022/10/20 01:02:38;;;;;;;7.07;4.25;;;12.00;94.60;;;;;;5055669;28;20052;-76
2022/10/20 01:05:05;;;;;;;7.53;3.67;;;12.00;94.40;;;;;;5055481;28;20477;-77
2022/10/20 01:07:30;;;;;;;6.80;4.15;;;11.90;94.60;;;;;;5055575;28;20045;-76
2022/10/20 01:09:56;;;;;;;6.47;3.47;;;11.80;94.60;;;;;;5055518;28;20017;-76
2022/10/20 01:12:37;;;;;;;7.90;3.65;;;11.70;95.10;;;;;;5054813;28;20102;-77
2022/10/20 01:15:40;;;;;;;9.82;3.67;;;11.70;95.00;;;;;;5055222;28;20068;-77
2022/10/20 01:18:05;;;;;;;8.48;4.15;;;11.70;95.00;;;;;;5055179;28;20048;-76
2022/10/20 01:20:52;;;;;;;7.40;3.20;;;11.60;95.00;;;;;;5054918;28;20017;-76
2022/10/20 01:23:21;;;;;;;9.82;4.10;;;11.70;95.20;;;;;;5055174;28;20086;-75
2022/10/20 01:25:52;;;;;;;5.57;3.17;;;11.60;95.20;;;;;;5055191;28;20040;-77
2022/10/20 01:28:36;;;;;;;4.10;3.28;;;11.60;95.20;;;;;;5054956;28;20063;-76
2022/10/20 01:31:08;;;;;;;6.68;3.60;;;11.60;95.30;;;;;;5055087;28;20021;-76
2022/10/20 01:34:05;;;;;;;4.47;3.40;;;11.70;95.30;;;;;;5055039;28;20380;-76
2022/10/20 01:36:44;;;;;;;6.97;3.83;;;11.70;95.20;;;;;;5053307;28;20418;-76
2022/10/20 01:39:16;;;;;;;6.32;3.97;;;11.60;95.20;;;;;;5055083;28;20102;-76
2022/10/20 01:41:49;;;;;;;4.57;3.30;;;11.60;95.30;;;;;;5055051;28;20465;-76
2022/10/20 01:44:17;;;;;;;6.13;3.78;;;11.60;95.30;;;;;;5054339;28;20036;-76
2022/10/20 01:46:43;;;;;;;8.07;3.60;;;11.70;95.30;;;;;;5054384;28;20527;-76
2022/10/20 01:49:11;;;;;;;10.20;4.10;;;11.60;95.30;;;;;;5057000;28;20025;-75
2022/10/20 01:51:36;;;;;;;7.03;3.10;;;11.60;95.20;;;;;;5058644;28;20021;-76
2022/10/20 01:54:02;;;;;;;9.48;4.05;;;11.60;95.40;;;;;;5055664;28;20024;-76
2022/10/20 01:56:55;;;;;;;10.25;3.95;;;11.60;95.40;;;;;;5054573;28;20416;-76
2022/10/20 01:59:39;;;;;;;9.65;4.25;;;11.60;95.30;;;;;;5054592;28;20032;-76
2022/10/20 02:02:21;;;;;;;5.68;3.70;;;11.60;95.40;;;;;;5054704;28;20082;-77
2022/10/20 02:05:11;;;;;;;7.70;3.90;;;11.60;95.50;;;;;;5054234;28;20405;-76
2022/10/20 02:07:38;;;;;;;7.20;3.75;;;11.60;95.60;;;;;;5054125;28;20037;-76
2022/10/20 02:10:07;;;;;;;4.32;3.67;;;11.60;95.50;;;;;;5054225;28;20551;-76
2022/10/20 02:12:37;;;;;;;5.75;3.70;;;11.60;95.60;;;;;;5054077;28;20079;-76
2022/10/20 02:15:05;;;;;;;5.45;3.83;;;11.60;95.60;;;;;;5054101;28;20100;-77
2022/10/20 02:17:33;;;;;;;5.13;3.75;;;11.60;95.60;;;;;;5054314;28;20472;-76
2022/10/20 02:19:59;;;;;;;5.88;3.92;;;11.60;95.60;;;;;;5054293;28;20040;-76
2022/10/20 02:22:25;;;;;;;7.43;3.50;;;11.60;95.50;;;;;;5053824;28;20021;-77
2022/10/20 02:24:51;;;;;;;5.78;3.17;;;11.60;95.60;;;;;;5053785;28;20055;-76
2022/10/20 02:27:26;;;;;;;9.00;4.75;;;11.60;95.60;;;;;;5054179;28;20041;-76
2022/10/20 02:30:08;;;;;;;5.13;3.88;;;11.60;95.60;;;;;;5053708;28;20056;-76
2022/10/20 02:32:36;;;;;;;8.45;3.47;;;11.50;95.60;;;;;;5053554;28;20039;-76
2022/10/20 02:35:25;;;;;;;5.57;3.90;;;11.50;95.70;;;;;;5053869;28;20051;-76
2022/10/20 02:37:51;;;;;;;5.88;3.65;;;11.50;95.70;;;;;;5053767;28;20063;-76
2022/10/20 02:40:17;;;;;;;8.20;4.25;;;11.50;95.60;;;;;;5054005;28;20057;-76
2022/10/20 02:42:42;;;;;;;14.55;4.40;;;11.50;95.50;;;;;;5053938;28;20423;-76
2022/10/20 02:45:09;;;;;;;7.20;3.90;;;11.40;95.70;;;;;;5053641;28;20059;-76
2022/10/20 02:47:34;;;;;;;6.18;4.15;;;11.40;95.70;;;;;;5056641;28;20116;-76
2022/10/20 02:50:01;;;;;;;10.40;4.05;;;11.30;95.90;;;;;;5056365;28;20070;-76
2022/10/20 02:52:27;;;;;;;6.38;3.40;;;11.30;96.00;;;;;;5053444;28;20028;-76
2022/10/20 02:54:53;;;;;;;5.28;3.50;;;11.40;96.00;;;;;;5053502;28;20047;-76
2022/10/20 02:57:18;;;;;;;5.72;3.70;;;11.50;96.00;;;;;;5053154;28;20476;-76
2022/10/20 02:59:44;;;;;;;9.45;4.55;;;11.50;95.70;;;;;;5053209;28;20021;-75
2022/10/20 03:02:09;;;;;;;4.40;3.33;;;11.50;95.70;;;;;;5053142;28;20029;-76
2022/10/20 03:04:35;;;;;;;4.45;3.95;;;11.50;95.70;;;;;;5052718;28;20021;-75
2022/10/20 03:07:01;;;;;;;5.90;3.72;;;11.40;95.80;;;;;;5052489;28;20037;-75
2022/10/20 03:09:26;;;;;;;8.70;4.20;;;11.40;95.80;;;;;;5053377;28;20025;-75
2022/10/20 03:11:52;;;;;;;5.68;3.40;;;11.40;96.00;;;;;;5053092;28;20416;-75
2022/10/20 03:14:17;;;;;;;6.38;3.67;;;11.40;96.00;;;;;;5053421;28;20033;-76
2022/10/20 03:16:43;;;;;;;4.15;3.65;;;11.40;96.00;;;;;;5053595;28;20439;-76
2022/10/20 03:19:08;;;;;;;4.93;4.25;;;11.40;95.90;;;;;;5053505;28;20029;-75
2022/10/20 03:21:34;;;;;;;5.43;3.90;;;11.40;96.00;;;;;;5053380;28;20405;-75
2022/10/20 03:24:00;;;;;;;7.07;3.58;;;11.50;96.00;;;;;;5053292;28;20460;-75
2022/10/20 03:26:25;;;;;;;9.13;4.38;;;11.40;96.20;;;;;;5052990;28;20374;-75
2022/10/20 03:28:51;;;;;;;6.43;3.90;;;11.30;96.00;;;;;;5053066;28;20437;-75
2022/10/20 03:31:17;;;;;;;4.43;3.50;;;11.30;96.20;;;;;;5053267;28;20373;-76
2022/10/20 03:33:42;;;;;;;5.25;3.40;;;11.30;96.30;;;;;;5053606;28;20049;-75
2022/10/20 03:36:08;;;;;;;5.43;3.30;;;11.30;96.40;;;;;;5053508;28;20158;-75
2022/10/20 03:38:34;;;;;;;6.68;3.58;;;11.30;96.30;;;;;;5057369;28;20487;-75
2022/10/20 03:40:59;;;;;;;5.38;3.58;;;11.40;96.30;;;;;;5057437;28;20017;-75
2022/10/20 03:43:25;;;;;;;6.53;3.70;;;11.40;96.10;;;;;;5064155;28;20021;-74
2022/10/20 03:46:03;;;;;;;8.57;4.22;;;11.30;96.10;;;;;;5076196;28;20445;-76
2022/10/20 03:48:29;;;;;;;5.05;3.47;;;11.30;96.20;;;;;;5062286;28;20044;-75
2022/10/20 03:50:55;;;;;;;4.97;3.90;;;11.20;96.30;;;;;;5057165;28;20021;-75
2022/10/20 03:53:21;;;;;;;6.43;4.65;;;11.10;96.60;;;;;;5056846;28;20021;-76
2022/10/20 03:55:46;;;;;;;9.57;4.68;;;11.00;96.50;;;;;;5056757;28;20106;-76
2022/10/20 03:58:12;;;;;;;7.60;4.15;;;11.00;96.70;;;;;;5056738;28;20017;-76
2022/10/20 04:00:38;;;;;;;4.80;3.50;;;11.00;96.90;;;;;;5056563;28;20033;-76
2022/10/20 04:03:03;;;;;;;4.90;4.40;;;11.00;97.00;;;;;;5056672;28;20460;-76
2022/10/20 04:05:29;;;;;;;5.78;4.13;;;11.10;96.90;;;;;;5056743;28;20457;-75
2022/10/20 04:07:54;;;;;;;4.30;3.67;;;11.10;96.90;;;;;;5056479;28;20127;-76
2022/10/20 04:10:20;;;;;;;5.60;3.85;;;11.10;97.10;;;;;;5056234;28;20029;-76
2022/10/20 04:12:45;;;;;;;7.30;3.85;;;11.10;96.90;;;;;;5056770;28;20036;-76
2022/10/20 04:15:11;;;;;;;8.10;4.47;;;11.10;96.90;;;;;;5056564;28;20036;-76
2022/10/20 04:17:37;;;;;;;7.03;4.25;;;11.10;97.00;;;;;;5056470;28;20037;-76
2022/10/20 04:20:04;;;;;;;4.57;3.50;;;11.10;96.90;;;;;;5056482;28;20055;-76
2022/10/20 04:22:30;;;;;;;6.03;4.03;;;11.10;97.00;;;;;;5056634;28;20043;-78
2022/10/20 04:24:55;;;;;;;7.88;4.25;;;11.10;96.90;;;;;;5056368;28;20456;-76
2022/10/20 04:27:21;;;;;;;10.35;4.45;;;11.10;97.00;;;;;;5056475;28;20072;-76
2022/10/20 04:29:46;;;;;;;7.40;4.40;;;11.10;96.80;;;;;;5056286;28;20447;-76
2022/10/20 04:32:12;;;;;;;8.52;4.30;;;11.10;97.30;;;;;;5056473;28;20472;-77
2022/10/20 04:34:38;;;;;;;8.65;4.40;;;11.10;97.00;;;;;;5056459;28;20075;-76
2022/10/20 04:37:04;;;;;;;9.68;4.55;;;11.00;97.10;;;;;;5056539;28;20020;-75
2022/10/20 04:39:29;;;;;;;5.60;3.90;;;11.10;97.20;;;;;;5067108;28;20021;-75
2022/10/20 04:41:55;;;;;;;7.47;4.20;;;11.10;97.20;;;;;;5068039;28;20036;-74
2022/10/20 04:44:20;;;;;;;8.15;4.10;;;11.10;97.10;;;;;;5066171;28;20021;-76
2022/10/20 04:46:46;;;;;;;8.38;4.57;;;11.00;97.10;;;;;;5058043;28;20033;-76
2022/10/20 04:49:12;;;;;;;6.68;4.72;;;11.10;97.30;;;;;;5055700;28;20055;-76
2022/10/20 04:51:37;;;;;;;5.53;4.03;;;11.10;97.10;;;;;;5055714;28;20057;-76
2022/10/20 04:54:03;;;;;;;6.60;4.05;;;11.10;97.30;;;;;;5055822;28;20478;-76
2022/10/20 04:56:29;;;;;;;7.88;4.53;;;11.10;97.20;;;;;;5055988;28;20380;-76
2022/10/20 04:58:56;;;;;;;7.68;4.63;;;11.00;97.20;;;;;;5056002;28;20100;-76
2022/10/20 05:01:25;;;;;;;6.60;4.28;;;11.00;97.20;;;;;;5055701;28;20020;-76
2022/10/20 05:03:51;;;;;;;8.02;4.13;;;11.00;97.50;;;;;;5055355;28;20508;-76
2022/10/20 05:06:20;;;;;;;8.68;4.30;;;11.00;97.60;;;;;;5055412;28;20117;-76
2022/10/20 05:08:48;;;;;;;9.85;5.28;;;11.10;97.60;;;;;;5055892;28;20384;-76
2022/10/20 05:11:16;;;;;;;6.85;4.80;;;11.10;97.50;;;;;;5055529;28;20025;-76
2022/10/20 05:13:42;;;;;;;7.35;5.03;;;11.00;97.50;;;;;;5055377;28;20365;-75
2022/10/20 05:16:09;;;;;;;7.82;4.90;;;11.00;97.60;;;;;;5055436;28;20040;-75
2022/10/20 05:18:34;;;;;;;6.65;4.70;;;11.00;97.60;;;;;;5055080;28;20028;-75
2022/10/20 05:21:08;;;;;;;5.20;4.60;;;11.00;97.70;;;;;;5055201;28;20037;-76
2022/10/20 05:23:33;;;;;;;9.80;4.80;;;11.00;97.70;;;;;;5053863;28;20032;-75
2022/10/20 05:26:08;;;;;;;7.60;4.70;;;11.00;97.80;;;;;;5054864;28;20029;-75
2022/10/20 05:28:34;;;;;;;9.90;5.22;;;11.10;97.70;;;;;;5054881;28;20045;-76
2022/10/20 05:31:01;;;;;;;9.98;5.50;;;11.10;97.60;;;;;;5055211;28;20028;-75
2022/10/20 05:33:27;;;;;;;9.93;4.85;;;11.10;97.80;;;;;;5055057;28;20025;-76
2022/10/20 05:35:52;;;;;;;8.00;4.60;;;11.10;97.90;;;;;;5055485;28;20099;-75
2022/10/20 05:38:18;;;;;;;7.93;4.97;;;11.20;97.70;;;;;;5056843;28;20021;-75
2022/10/20 05:40:44;;;;;;;7.05;5.40;;;11.20;97.70;;;;;;5060011;28;20021;-75
2022/10/20 05:43:09;;;;;;;9.48;5.80;;;11.20;97.70;;;;;;5056302;28;20021;-75
2022/10/20 05:45:35;;;;;;;10.05;5.78;;;11.10;97.80;;;;;;5054641;28;20025;-76
2022/10/20 05:48:00;;;;;;;12.63;6.32;;;11.20;97.90;;;;;;5052964;28;20072;-80
2022/10/20 05:50:26;;;;;;;9.48;5.63;;;11.10;97.90;;;;;;5037876;28;20528;-80
2022/10/20 05:52:51;;;;;;;8.70;5.53;;;11.20;97.90;;;;;;5042561;28;20035;-75
2022/10/20 05:55:17;;;;;;;9.45;5.30;;;11.20;97.90;;;;;;5046630;28;20427;-76
2022/10/20 05:57:43;;;;;;;9.50;5.82;;;11.30;97.80;;;;;;5034777;28;20521;-76
2022/10/20 06:00:09;;;;;;;11.57;6.32;;;11.30;97.60;;;;;;5033981;28;20449;-74
2022/10/20 06:02:35;;;;;;;7.82;5.88;;;11.30;97.70;;;;;;5034326;28;20032;-74
2022/10/20 06:05:01;;;;;;;12.05;5.72;;;11.30;97.70;;;;;;5034157;28;20029;-75
2022/10/20 06:07:26;;;;;;;7.35;5.40;;;11.40;97.70;;;;;;5034586;28;20051;-77
2022/10/20 06:09:52;;;;;;;8.68;5.72;;;11.40;97.70;;;;;;5034446;28;20358;-77
2022/10/20 06:12:17;;;;;;;9.63;5.85;;;11.40;97.70;;;;;;5034730;28;20031;-73
2022/10/20 06:14:43;;;;;;;9.30;5.25;;;11.40;97.60;;;;;;5034148;28;20504;-76
2022/10/20 06:17:08;;;;;;;7.10;5.55;;;11.40;97.50;;;;;;5033857;28;20034;-74
2022/10/20 06:19:34;;;;;;;9.05;5.78;;;11.50;97.60;;;;;;5035395;28;20420;-75
2022/10/20 06:21:59;;;;;;;9.25;6.30;;;11.50;97.60;;;;;;5034193;28;20030;-77
2022/10/20 06:24:25;;;;;;;7.60;5.45;;;11.50;97.60;;;;;;5034228;28;20120;-77
2022/10/20 06:26:51;;;;;;;11.65;6.60;;;11.50;97.70;;;;;;5038871;28;20037;-75
2022/10/20 06:29:18;;;;;;;9.77;6.72;;;11.50;97.60;;;;;;5035082;28;20067;-76
2022/10/20 06:31:46;;;;;;;11.85;6.65;;;11.40;97.70;;;;;;5034066;28;20037;-75
2022/10/20 06:34:19;;;;;;;10.15;6.38;;;11.40;97.90;;;;;;5033855;28;20481;-76
2022/10/20 06:36:45;;;;;;;8.02;6.60;;;11.50;97.90;;;;;;5044379;28;20016;-75
2022/10/20 06:39:14;;;;;;;10.48;6.85;;;11.60;97.90;;;;;;5039721;28;20070;-76
2022/10/20 06:41:40;;;;;;;7.72;6.35;;;11.70;97.70;;;;;;5034711;28;20033;-76
2022/10/20 06:44:06;;;;;;;6.63;5.32;;;11.70;97.60;;;;;;5033829;28;20034;-77
2022/10/20 06:46:34;;;;;;;10.30;6.13;;;11.80;97.50;;;;;;5033410;28;20081;-76
2022/10/20 06:49:05;;;;;;;12.45;6.55;;;11.80;97.40;;;;;;5036405;28;20038;-77
2022/10/20 06:51:31;;;;;;;9.63;7.25;;;11.90;97.50;;;;;;5033416;28;20022;-74
2022/10/20 06:54:04;;;;;;;10.30;6.40;;;11.80;97.40;;;;;;5033641;28;20029;-76
2022/10/20 06:56:31;;;;;;;7.82;5.95;;;11.80;97.40;;;;;;5033736;28;20450;-74
2022/10/20 06:58:58;;;;;;;9.13;6.30;;;11.90;97.40;;;;;;5033106;28;20034;-75
2022/10/20 07:01:29;;;;;;;11.85;6.43;;;12.00;97.30;;;;;;5033803;28;20108;-75
2022/10/20 07:04:01;;;;;;;8.07;6.07;;;12.00;97.10;;;;;;5033344;28;20030;-74
2022/10/20 07:06:29;;;;;;;11.07;6.75;;;12.00;96.90;;;;;;5033229;28;20029;-74
2022/10/20 07:08:55;;;;;;;10.55;6.88;;;12.00;96.90;;;;;;5033066;28;20026;-75
2022/10/20 07:11:24;;;;;;;9.38;6.55;;;12.00;97.00;;;;;;5033272;28;20037;-75
2022/10/20 07:13:50;;;;;;;11.90;6.90;;;12.00;97.00;;;;;;5033480;28;20021;-75
2022/10/20 07:16:19;;;;;;;11.25;7.07;;;12.00;97.10;;;;;;5033163;28;20530;-75
2022/10/20 07:18:45;;;;;;;7.13;6.00;;;11.90;97.10;;;;;;5033511;28;20032;-75
2022/10/20 07:21:13;;;;;;;10.73;6.75;;;11.90;97.20;;;;;;5032842;28;20117;-75
2022/10/20 07:23:39;;;;;;;9.65;6.93;;;12.10;97.20;;;;;;5032582;28;20059;-75
2022/10/20 07:26:10;;;;;;;8.60;6.68;;;12.10;97.20;;;;;;5033877;28;20033;-75
2022/10/20 07:28:38;;;;;;;10.35;6.57;;;12.10;97.20;;;;;;5033056;28;20060;-75
2022/10/20 07:31:10;;;;;;;10.95;6.70;;;12.10;97.00;;;;;;5033375;28;20063;-75
2022/10/20 07:33:35;;;;;;;9.70;7.13;;;12.10;97.10;;;;;;5045757;28;20029;-75
2022/10/20 07:36:01;;;;;;;12.77;8.32;;;12.00;97.10;;;;;;5043277;28;20051;-77
2022/10/20 07:38:27;;;;;;;10.77;7.70;;;12.00;97.20;;;;;;5035683;28;20059;-73
2022/10/20 07:40:52;;;;;;;10.05;6.88;;;11.90;97.30;;;;;;5033296;28;20025;-73
2022/10/20 07:43:18;;;;;;;9.50;7.65;;;11.80;97.60;;;;;;5033149;28;20021;-77
2022/10/20 07:45:44;;;;;;;8.77;6.88;;;11.80;97.60;;;;;;5033217;28;20049;-76
2022/10/20 07:48:10;;;;;;;9.63;6.53;;;11.80;97.80;;;;;;5033154;28;20049;-77
2022/10/20 07:50:37;;;;;;;11.95;7.22;;;11.90;97.80;;;;;;5033190;28;20029;-77
2022/10/20 07:53:05;;;;;;;8.63;5.88;;;12.00;97.70;;;;;;5032644;28;20117;-76
2022/10/20 07:55:31;;;;;;;10.45;7.45;;;12.10;97.70;;;;;;5043029;28;20041;-75
2022/10/20 07:57:57;;;;;;;10.02;6.95;;;12.20;97.60;;;;;;5044313;28;20070;-75
2022/10/20 08:00:22;;;;;;;10.63;6.93;;;12.20;97.60;;;;;;5040861;28;20009;-75
2022/10/20 08:02:48;;;;;;;14.15;8.07;;;12.20;97.60;;;;;;5052930;28;20021;-75
2022/10/20 08:05:13;;;;;;;7.82;6.78;;;12.20;97.40;;;;;;5052571;28;20496;-75
2022/10/20 08:07:39;;;;;;;10.70;7.68;;;12.10;97.60;;;;;;5043936;28;20049;-75
2022/10/20 08:10:05;;;;;;;11.93;7.25;;;12.10;97.60;;;;;;5037752;28;20044;-74
2022/10/20 08:12:31;;;;;;;12.60;7.72;;;12.20;97.70;;;;;;5043354;28;20037;-78
2022/10/20 08:14:57;;;;;;;12.20;7.07;;;12.20;97.70;;;;;;5033828;28;20059;-76
2022/10/20 08:17:23;;;;;;;12.85;9.30;;;12.20;97.60;;;;;;5052702;28;20063;-74
2022/10/20 08:19:48;;;;;;;12.05;7.07;;;12.20;97.50;;;;;;5045379;28;20056;-76
2022/10/20 08:22:18;;;;;;;13.65;8.45;;;12.20;97.70;;;;;;5032667;28;20057;-75
2022/10/20 08:24:43;;;;;;;10.57;6.70;;;12.20;97.70;;;;;;5036374;28;20025;-75
2022/10/20 08:27:09;;;;;;;14.50;8.10;;;12.20;97.70;;;;;;5041256;28;20033;-75
2022/10/20 08:29:35;;;;;;;11.88;7.40;;;12.30;97.80;;;;;;5048091;28;20049;-74
2022/10/20 08:32:01;;;;;;;11.38;7.20;;;12.30;97.80;;;;;;5051111;28;20030;-76
2022/10/20 08:34:26;;;;;;;10.40;8.10;;;12.40;97.80;;;;;;5038395;28;20029;-77
2022/10/20 08:36:52;;;;;;;11.93;8.43;;;12.40;97.90;;;;;;5036619;28;20021;-77
2022/10/20 08:39:17;;;;;;;11.52;8.18;;;12.50;98.00;;;;;;5036254;28;20362;-76
2022/10/20 08:41:46;;;;;;;12.20;7.78;;;12.50;98.00;;;;;;5036336;28;20404;-76
2022/10/20 08:44:32;;;;;;;12.68;7.93;;;12.50;98.00;;;;;;5036122;28;20043;-76
2022/10/20 08:47:01;;;;;;;11.32;8.30;;;12.70;98.10;;;;;;5035734;28;20517;-76
2022/10/20 08:49:29;;;;;;;11.85;7.50;;;12.70;97.90;;;;;;5035841;28;20032;-75
2022/10/20 08:51:55;;;;;;;11.35;8.55;;;12.80;97.90;;;;;;5036642;28;20049;-76
2022/10/20 08:54:21;;;;;;;12.82;7.80;;;12.80;98.00;;;;;;5035630;28;20467;-76
2022/10/20 08:56:46;;;;;;;11.75;7.90;;;12.90;98.00;;;;;;5038919;28;20090;-77
2022/10/20 08:59:21;;;;;;;12.35;7.80;;;13.00;98.00;;;;;;5051349;28;20117;-77
2022/10/20 09:01:47;;;;;;;10.60;8.05;;;13.00;97.80;;;;;;5036803;28;20112;-74
2022/10/20 09:04:18;;;;;;;18.38;9.63;;;13.10;97.70;;;;;;5042903;28;20053;-74
2022/10/20 09:06:46;;;;;;;18.92;8.27;;;13.10;97.70;;;;;;5035681;28;20038;-74
2022/10/20 09:09:18;;;;;;;9.73;7.32;;;13.10;97.70;;;;;;5035769;28;20033;-74
2022/10/20 09:11:45;;;;;;;9.07;7.97;;;13.20;97.80;;;;;;5035819;28;20047;-75
2022/10/20 09:14:11;;;;;;;12.18;8.25;;;13.20;97.80;;;;;;5035716;28;20377;-75
2022/10/20 09:16:40;;;;;;;11.30;7.80;;;13.30;97.90;;;;;;5035363;28;20354;-75
2022/10/20 09:19:15;;;;;;;17.55;8.52;;;13.30;98.00;;;;;;5035163;28;20030;-75
2022/10/20 09:21:42;;;;;;;10.80;7.35;;;13.40;97.90;;;;;;5035268;28;20068;-75
2022/10/20 09:24:08;;;;;;;11.32;8.48;;;13.50;97.90;;;;;;5036784;28;20362;-75
2022/10/20 09:26:42;;;;;;;14.40;9.20;;;13.50;97.80;;;;;;5041375;28;20029;-73
2022/10/20 09:29:28;;;;;;;11.45;8.02;;;13.60;97.80;;;;;;5046120;28;20049;-75
2022/10/20 09:31:55;;;;;;;16.45;10.38;;;13.50;97.80;;;;;;5031607;28;20042;-75
2022/10/20 09:34:33;;;;;;;13.20;8.88;;;13.50;98.00;;;;;;5034039;28;20140;-76
2022/10/20 09:37:07;;;;;;;15.43;9.93;;;13.50;98.10;;;;;;5035949;28;20045;-76
2022/10/20 09:39:54;;;;;;;11.95;8.77;;;13.50;98.30;;;;;;5038975;28;20036;-75
2022/10/20 09:42:34;;;;;;;13.65;9.73;;;13.50;98.20;;;;;;5042904;28;20026;-81
2022/10/20 09:45:30;;;;;;;12.82;8.80;;;13.60;98.30;;;;;;5049130;28;20032;-75
2022/10/20 09:48:01;;;;;;;13.13;9.25;;;13.60;98.30;;;;;;5043376;28;20072;-74
2022/10/20 09:50:34;;;;;;;16.48;9.40;;;13.70;98.30;;;;;;5047273;28;20037;-74
2022/10/20 09:53:03;;;;;;;13.80;9.85;;;13.70;98.30;;;;;;5041296;28;20108;-76
2022/10/20 09:55:31;;;;;;;14.88;9.57;;;13.80;98.30;;;;;;5039556;28;20059;-77
2022/10/20 09:58:00;;;;;;;12.80;9.73;;;13.90;98.30;;;;;;5040614;28;20507;-79
2022/10/20 10:00:33;;;;;;;15.50;9.93;;;13.90;98.40;;;;;;5033833;28;20428;-77
2022/10/20 10:03:21;;;;;;;;;;;13.90;98.60;;;;;;5043182;28;20022;-78
2022/10/20 10:05:58;;;;;;;12.70;8.90;;;13.90;98.60;;;;;;5034947;28;20284;-81
2022/10/20 10:08:44;;;;;;;15.40;9.20;;;13.90;98.70;;;;;;5043324;28;20033;-74
2022/10/20 10:11:22;;;;;;;11.65;9.32;;;13.90;98.70;;;;;;5041417;28;20067;-77
2022/10/20 10:13:49;;;;;;;14.10;9.73;;;13.90;98.80;;;;;;5035874;28;20126;-78
2022/10/20 10:16:18;;;;;;;11.80;9.10;;;13.90;98.80;;;;;;5044259;28;20030;-74
2022/10/20 10:18:53;;;;;;;18.02;10.07;;;13.90;98.80;;;;;;5039690;28;20033;-74
2022/10/20 10:21:20;;;;;;;14.27;9.18;;;14.00;98.90;;;;;;5039241;28;20029;-74
2022/10/20 10:23:58;;;;;;;15.35;10.63;;;14.00;98.90;;;;;;5046753;28;20080;-70
2022/10/20 10:26:46;;;;;;;14.43;10.18;;;14.00;98.90;;;;;;5041470;28;20029;-74
2022/10/20 10:29:22;;;;;;;16.10;10.23;;;14.00;98.90;;;;;;5029479;28;20041;-74
2022/10/20 10:32:15;;;;;;;15.48;10.35;;;14.10;99.00;;;;;;5039038;28;20107;-73
2022/10/20 10:35:16;;;;;;;13.57;9.75;;;14.10;99.20;;;;;;5045446;28;20037;-74
2022/10/20 10:37:43;;;;;;;11.00;8.73;;;14.00;99.20;;;;;;5041934;28;20156;-74
2022/10/20 10:40:18;;;;;;;18.52;10.30;;;14.00;99.50;;;;;;5049367;28;20511;-74
2022/10/20 10:43:23;;;;;;;18.50;10.07;;;14.10;99.50;;;;;;5036324;28;20544;-74
2022/10/20 10:45:57;;;;;;;15.10;10.70;;;14.10;99.50;;;;;;5032817;28;20041;-74
2022/10/20 10:48:50;;;;;;;16.10;10.82;;;14.20;99.50;;;;;;5047403;28;20041;-75
2022/10/20 10:51:19;;;;;;;;;;;14.20;99.80;;;;;;5040778;28;20473;-75
2022/10/20 10:54:06;;;;;;;16.70;11.27;;;14.20;99.80;;;;;;5036135;28;19909;-75
2022/10/20 10:56:39;;;;;;;18.48;11.57;;;14.30;99.90;;;;;;5033341;28;20352;-76
2022/10/20 10:59:11;;;;;;;16.58;10.48;;;14.30;99.90;;;;;;5039824;28;20029;-74
2022/10/20 11:01:58;;;;;;;17.13;13.00;;;14.30;99.90;;;;;;5033106;28;20367;-76
2022/10/20 11:04:44;;;;;;;19.95;12.55;;;14.30;99.90;;;;;;5033802;28;20048;-75
2022/10/20 11:07:49;;;;;;;17.58;10.80;;;14.40;99.90;;;;;;5035510;28;20050;-75
2022/10/20 11:10:58;;;;;;;17.25;10.50;;;14.40;99.90;;;;;;5050204;28;20028;-75
2022/10/20 11:13:36;;;;;;;17.42;10.18;;;14.40;99.90;;;;;;5014697;28;20026;-77
2022/10/20 11:16:10;;;;;;;15.10;9.45;;;14.40;99.90;;;;;;5035497;28;20116;-77
2022/10/20 11:18:36;;;;;;;12.20;9.60;;;14.40;99.90;;;;;;5046655;28;20088;-76
2022/10/20 11:21:28;;;;;;;12.93;9.73;;;14.40;99.90;;;;;;5062355;28;20022;-77
2022/10/20 11:24:16;;;;;;;13.38;9.13;;;14.50;99.90;;;;;;5052902;28;20079;-77
2022/10/20 11:26:55;;;;;;;14.95;9.35;;;14.50;99.90;;;;;;5051255;28;20087;-77
2022/10/20 11:29:41;;;;;;;16.25;9.68;;;14.50;99.90;;;;;;5038771;28;20049;-77
2022/10/20 11:32:18;;;;;;;13.00;9.18;;;14.50;99.90;;;;;;5032942;28;20041;-76
2022/10/20 11:35:01;;;;;;;15.82;10.25;;;14.50;99.90;;;;;;5048259;28;20059;-77
2022/10/20 11:37:30;;;;;;;13.75;9.48;;;14.50;99.90;;;;;;5046509;28;20036;-77
2022/10/20 11:40:35;;;;;;;16.20;9.80;;;14.40;99.90;;;;;;5035366;28;20022;-76
2022/10/20 11:43:10;;;;;;;16.35;10.10;;;14.50;99.90;;;;;;5035313;28;20057;-77
2022/10/20 11:45:49;;;;;;;12.13;9.70;;;14.50;99.90;;;;;;5033290;28;20060;-78
2022/10/20 11:48:39;;;;;;;14.18;8.45;;;14.50;99.90;;;;;;5033253;28;20033;-77
2022/10/20 11:51:22;;;;;;;18.08;9.38;;;14.40;99.90;;;;;;5033005;28;20493;-77
2022/10/20 11:54:18;;;;;;;19.67;10.60;;;14.50;99.90;;;;;;5033350;28;20485;-77
2022/10/20 11:57:12;;;;;;;15.25;9.02;;;14.50;99.90;;;;;;5040361;28;20029;-77
2022/10/20 12:00:07;;;;;;;16.77;9.80;;;14.50;99.90;;;;;;5045187;28;20428;-76
2022/10/20 12:02:55;;;;;;;18.88;11.23;;;14.50;99.90;;;;;;5039233;28;20401;-77
2022/10/20 12:05:30;;;;;;;18.58;11.77;;;14.50;99.90;;;;;;5049439;28;20119;-75
2022/10/20 12:07:58;;;;;;;16.73;10.82;;;14.50;99.90;;;;;;5045192;28;20036;-75
2022/10/20 12:10:54;;;;;;;16.00;11.40;;;14.40;99.90;;;;;;5050898;28;20120;-75
2022/10/20 12:13:40;;;;;;;14.68;10.60;;;14.40;99.90;;;;;;5049803;28;20033;-77
2022/10/20 12:16:06;;;;;;;18.58;10.57;;;14.40;99.90;;;;;;5049788;28;20033;-76
2022/10/20 12:18:34;;;;;;;15.50;11.23;;;14.50;99.90;;;;;;5052869;28;20036;-77
2022/10/20 12:21:01;;;;;;;19.27;11.90;;;14.50;99.90;;;;;;5053640;28;20361;-77
2022/10/20 12:23:45;;;;;;;18.65;11.60;;;14.40;99.90;;;;;;5043888;28;20056;-77
2022/10/20 12:26:36;;;;;;;16.90;12.15;;;14.40;99.90;;;;;;5024728;28;20049;-77
2022/10/20 12:29:31;;;;;;;17.20;12.57;;;14.40;99.90;;;;;;5042330;28;20049;-77
2022/10/20 12:32:27;;;;;;;16.13;12.38;;;14.30;99.90;;;;;;5036643;28;20041;-76
2022/10/20 12:34:55;;;;;;;16.08;11.95;;;14.30;99.90;;;;;;5034888;28;20030;-76
2022/10/20 12:37:23;;;;;;;17.77;13.27;;;14.30;99.90;;;;;;5047618;28;20025;-76
2022/10/20 12:39:51;;;;;;;24.55;13.43;;;14.20;99.90;;;;;;5037504;28;20389;-76
2022/10/20 12:42:24;;;;;;;16.55;10.90;;;14.20;99.90;;;;;;5040412;28;20021;-77
2022/10/20 12:44:50;;;;;;;14.20;10.73;;;14.10;99.90;;;;;;5046022;28;20024;-76
2022/10/20 12:47:27;;;;;;;16.48;10.90;;;14.20;99.90;;;;;;5046888;28;20392;-77
2022/10/20 12:50:02;;;;;;;17.98;11.65;;;14.30;99.90;;;;;;5036213;28;20104;-76
2022/10/20 12:52:31;;;;;;;22.67;12.93;;;14.40;99.90;;;;;;5041270;28;20396;-76
2022/10/20 12:55:17;;;;;;;20.38;13.32;;;14.40;99.90;;;;;;5052133;28;20022;-75
2022/10/20 12:57:44;;;;;;;22.95;14.63;;;14.40;99.90;;;;;;5046332;28;20018;-75
2022/10/20 13:00:22;;;;;;;21.67;14.35;;;14.40;99.90;;;;;;5050449;28;20028;-78